Bischofshofen, Autriche

01:14 CET le 29 janvier 2015 (GMT +0100)
Muehlach am Hochkoenig | Change Station
CLOSE
Current Station
Stations météorologiques personnelles
Location: Mühlbach Am Hochkönig, SALZBURG
Altitude: 2785 ft
Stations météo à proximité

Alt. 2785 ft 47.38 °N, 13.13 °E | Updated 4 seconds ago

Light Snow
Neige légère
21.4 ° F
Paraît 21 ° F
N
0.0
Vent Variable Vent de ESE
Gusts 0.0 mph

Aujourd'hui
Haut(e) -- | Bas -- ° F
--% Risque de précip.
Hier
Haut(e) -- | Bas -- ° F
Precip. -- pouce
7:37 AM 5:03 PM
Lune gibbeuse croissante, 69% visible
Pression 29.56 pouce
Visibilité 6.2 Miles terrestres
Nuages Peu 3800 ft
Nuageux 5000 ft
Refroidissement éolien 21 ° F
Point de rosée 14 ° F
Humidité 73%
Précipitations 0.00 pouce
Profondeur de la couche neigeuse Non disponible.
UV 0.0 sur 12
Pollen Non disponible.
Qualité de l'air Non disponible.
Flu Activity Non disponible.
METAR LOWS 282350Z AUTO 16010KT 9999 -SN FEW038 BKN050 01/M06 Q1001

More Conditions Fewer Conditions

Pression 29.56 pouce
Visibilité 6.2 Miles terrestres
Nuages Peu 3800 ft
Nuageux 5000 ft
Refroidissement éolien 21 ° F
Point de rosée 14 ° F
Humidité 73%
Précipitations 0.00 pouce
Profondeur de la couche neigeuse Non disponible.
UV 0.0 sur 12
Pollen Non disponible.
Qualité de l'air Non disponible.
Flu Activity Non disponible.
METAR LOWS 282350Z AUTO 16010KT 9999 -SN FEW038 BKN050 01/M06 Q1001

More Conditions Fewer Conditions

10-Day Weather Forecast

Almanac

Astronomie

Jan. 29, 2015 Lever Coucher
Temps réel
Crépuscule civil
Crépuscule nautique
Crépuscule astronomique
Lune
Durée de lumière visible
Longueur du jour
Tomorrow will be .
, % of the Moon is Illuminated

Extrêmes aujourd'hui

Country Highs Country Lows

Community

WunderPhotos

Upload Photos

1,791,302 Photos téléchargées !

WunderBlogs® & News

Nearby

Qualité de l'air

  Qualité de l'air Indice de la qualité de l'air Polluant
Not available.

Épaisseur de neige

Station Depth Altitude

Activité sismique

Ville Distance Mag. Time & Date
Minimum magnitude displayed is 2.5.

Températures des eaux côtières

Lieu Température

Stations météo à proximité